createdAt,value
2022-08-30T00:00:03.505Z,18.85
2022-08-30T00:02:34.491Z,18.85
2022-08-30T00:05:02.460Z,18.80
2022-08-30T00:07:30.767Z,18.73
2022-08-30T00:09:58.535Z,18.75
2022-08-30T00:12:26.524Z,18.72
2022-08-30T00:14:54.464Z,18.66
2022-08-30T00:17:22.162Z,18.65
2022-08-30T00:19:49.939Z,18.71
2022-08-30T00:22:17.617Z,18.74
2022-08-30T00:24:45.515Z,18.62
2022-08-30T00:27:13.358Z,18.72
2022-08-30T00:29:42.254Z,18.66
2022-08-30T00:32:10.065Z,18.62
2022-08-30T00:34:37.707Z,18.55
2022-08-30T00:37:05.416Z,18.67
2022-08-30T00:39:33.043Z,18.64
2022-08-30T00:42:01.014Z,18.59
2022-08-30T00:44:28.671Z,18.50
2022-08-30T00:46:56.434Z,18.38
2022-08-30T00:49:25.556Z,18.30
2022-08-30T00:51:54.114Z,18.25
2022-08-30T00:54:23.570Z,18.19
2022-08-30T00:56:54.410Z,18.22
2022-08-30T00:59:24.411Z,18.27
2022-08-30T01:01:52.955Z,18.18
2022-08-30T01:04:25.522Z,18.30
2022-08-30T01:06:54.225Z,18.34
2022-08-30T01:09:22.223Z,18.33
2022-08-30T01:11:50.487Z,18.38
2022-08-30T01:14:18.964Z,18.35
2022-08-30T01:16:46.830Z,18.35
2022-08-30T01:19:52.972Z,18.40
2022-08-30T01:22:28.686Z,18.42
2022-08-30T01:24:58.401Z,18.39
2022-08-30T01:27:28.717Z,18.42
2022-08-30T01:29:58.743Z,18.39
2022-08-30T01:32:29.550Z,18.25
2022-08-30T01:34:58.149Z,18.36
2022-08-30T01:37:32.098Z,18.17
2022-08-30T01:40:01.193Z,18.31
2022-08-30T01:42:29.062Z,18.07
2022-08-30T01:44:56.668Z,18.24
2022-08-30T01:47:24.754Z,18.10
2022-08-30T01:49:52.493Z,18.19
2022-08-30T01:52:20.311Z,18.20
2022-08-30T01:54:48.387Z,18.15
2022-08-30T01:57:19.217Z,18.07
2022-08-30T01:59:47.829Z,17.96
2022-08-30T02:02:25.950Z,17.90
2022-08-30T02:04:54.571Z,18.05
2022-08-30T02:07:24.099Z,18.01
2022-08-30T02:09:52.836Z,18.02
2022-08-30T02:12:21.012Z,18.01
2022-08-30T02:14:48.790Z,17.98
2022-08-30T02:17:17.135Z,18.04
2022-08-30T02:19:44.983Z,17.92
2022-08-30T02:22:12.696Z,17.99
2022-08-30T02:24:40.404Z,17.90
2022-08-30T02:27:09.447Z,17.96
2022-08-30T02:29:37.048Z,17.85
2022-08-30T02:32:05.139Z,17.87
2022-08-30T02:34:32.914Z,17.88
2022-08-30T02:37:01.015Z,17.85
2022-08-30T02:39:28.708Z,17.78
2022-08-30T02:41:57.012Z,17.90
2022-08-30T02:44:24.669Z,17.92
2022-08-30T02:46:52.363Z,17.76
2022-08-30T02:49:35.463Z,17.88
2022-08-30T02:52:05.264Z,17.82
2022-08-30T02:54:33.345Z,17.73
2022-08-30T02:57:04.977Z,17.73
2022-08-30T02:59:33.826Z,17.74
2022-08-30T03:02:01.548Z,17.94
2022-08-30T03:04:29.633Z,17.95
2022-08-30T03:06:57.276Z,17.89
2022-08-30T03:09:28.441Z,17.87
2022-08-30T03:11:56.130Z,17.85
2022-08-30T03:14:24.180Z,17.88
2022-08-30T03:16:52.121Z,17.91
2022-08-30T03:19:20.079Z,17.95
2022-08-30T03:21:47.979Z,17.99
2022-08-30T03:24:15.637Z,17.90
2022-08-30T03:26:46.433Z,18.02
2022-08-30T03:29:14.873Z,17.92
2022-08-30T03:31:53.372Z,17.89
2022-08-30T03:34:29.182Z,17.95
2022-08-30T03:37:01.313Z,17.89
2022-08-30T03:39:28.977Z,17.67
2022-08-30T03:41:56.612Z,17.92
2022-08-30T03:44:24.287Z,17.88
2022-08-30T03:47:04.156Z,17.87
2022-08-30T03:49:41.310Z,17.91
2022-08-30T03:52:09.128Z,17.71
2022-08-30T03:54:36.755Z,17.88
2022-08-30T03:57:06.103Z,17.90
2022-08-30T03:59:33.831Z,17.88
2022-08-30T04:02:01.604Z,17.91
2022-08-30T04:04:29.636Z,17.90
2022-08-30T04:06:57.452Z,17.93
2022-08-30T04:09:25.236Z,17.76
2022-08-30T04:11:52.904Z,17.92
2022-08-30T04:14:20.961Z,17.94
2022-08-30T04:16:48.878Z,18.00
2022-08-30T04:19:16.598Z,17.91
2022-08-30T04:21:44.879Z,17.84
2022-08-30T04:24:13.613Z,17.71
2022-08-30T04:26:41.506Z,17.82
2022-08-30T04:29:11.737Z,17.89
2022-08-30T04:31:39.594Z,17.83
2022-08-30T04:34:07.440Z,17.92
2022-08-30T04:36:35.046Z,17.88
2022-08-30T04:39:02.772Z,17.85
2022-08-30T04:41:30.390Z,17.93
2022-08-30T04:43:58.007Z,17.96
2022-08-30T04:46:25.649Z,17.92
2022-08-30T04:48:53.295Z,18.01
2022-08-30T04:51:21.262Z,17.97
2022-08-30T04:53:48.966Z,17.96
2022-08-30T04:56:22.434Z,17.86
2022-08-30T04:58:54.242Z,17.90
2022-08-30T05:01:29.571Z,17.89
2022-08-30T05:03:59.352Z,17.95
2022-08-30T05:06:31.019Z,17.94
2022-08-30T05:09:00.981Z,17.83
2022-08-30T05:11:28.973Z,17.84
2022-08-30T05:13:56.652Z,17.91
2022-08-30T05:16:24.460Z,17.96
2022-08-30T05:18:53.683Z,17.84
2022-08-30T05:21:26.538Z,17.89
2022-08-30T05:24:00.242Z,17.99
2022-08-30T05:26:34.328Z,17.99
2022-08-30T05:29:02.441Z,18.00
2022-08-30T05:31:34.306Z,17.93
2022-08-30T05:34:02.870Z,17.99
2022-08-30T05:36:35.138Z,17.99
2022-08-30T05:39:05.585Z,18.14
2022-08-30T05:41:34.086Z,17.99
2022-08-30T05:44:03.884Z,17.99
2022-08-30T05:46:35.631Z,18.05
2022-08-30T05:49:06.434Z,18.06
2022-08-30T05:51:43.412Z,18.05
2022-08-30T05:54:14.661Z,18.20
2022-08-30T05:56:45.346Z,18.18
2022-08-30T05:59:14.331Z,18.34
2022-08-30T06:01:46.008Z,18.27
2022-08-30T06:04:14.669Z,18.40
2022-08-30T06:06:44.183Z,18.51
2022-08-30T06:09:13.994Z,18.50
2022-08-30T06:11:42.826Z,18.46
2022-08-30T06:14:11.406Z,18.56
2022-08-30T06:16:40.948Z,18.47
2022-08-30T06:19:11.099Z,18.45
2022-08-30T06:21:40.639Z,18.52
2022-08-30T06:24:11.340Z,18.52
2022-08-30T06:26:43.063Z,18.58
2022-08-30T06:29:15.249Z,18.61
2022-08-30T06:31:43.265Z,18.53
2022-08-30T06:34:11.149Z,18.71
2022-08-30T06:36:39.456Z,18.76
2022-08-30T06:39:08.073Z,18.43
2022-08-30T06:41:38.991Z,18.62
2022-08-30T06:44:16.512Z,18.88
2022-08-30T06:46:44.230Z,18.81
2022-08-30T06:49:11.956Z,18.88
2022-08-30T06:51:40.102Z,18.93
2022-08-30T06:54:12.311Z,18.90
2022-08-30T06:56:55.318Z,19.13
2022-08-30T06:59:26.938Z,19.17
2022-08-30T07:01:56.205Z,19.29
2022-08-30T07:04:25.339Z,19.25
2022-08-30T07:06:53.314Z,19.35
2022-08-30T07:09:23.069Z,19.43
2022-08-30T07:11:52.181Z,19.46
2022-08-30T07:14:21.144Z,19.54
2022-08-30T07:16:51.097Z,19.63
2022-08-30T07:19:21.056Z,19.57
2022-08-30T07:21:50.216Z,19.54
2022-08-30T07:24:19.022Z,19.54
2022-08-30T07:26:51.709Z,19.58
2022-08-30T07:29:21.170Z,19.48
2022-08-30T07:31:48.948Z,19.75
2022-08-30T07:34:16.702Z,19.77
2022-08-30T07:36:44.325Z,19.98
2022-08-30T07:39:12.045Z,19.91
2022-08-30T07:41:39.734Z,20.05
2022-08-30T07:44:09.039Z,20.17
2022-08-30T07:46:38.976Z,20.33
2022-08-30T07:49:11.230Z,20.44
2022-08-30T07:51:40.687Z,20.27
2022-08-30T07:54:08.917Z,20.34
2022-08-30T07:56:36.614Z,20.53
2022-08-30T07:59:04.477Z,20.65
2022-08-30T08:01:32.274Z,20.79
2022-08-30T08:04:00.001Z,20.82
2022-08-30T08:06:27.806Z,20.90
2022-08-30T08:09:02.585Z,20.97
2022-08-30T08:11:33.630Z,20.86
2022-08-30T08:14:04.280Z,21.10
2022-08-30T08:16:36.875Z,21.06
2022-08-30T08:19:09.090Z,21.36
2022-08-30T08:21:37.977Z,21.40
2022-08-30T08:24:06.493Z,21.45
2022-08-30T08:26:43.793Z,21.40
2022-08-30T08:29:13.579Z,21.45
2022-08-30T08:31:41.845Z,21.28
2022-08-30T08:34:11.636Z,21.40
2022-08-30T08:36:40.339Z,21.46
2022-08-30T08:39:09.641Z,21.54
2022-08-30T08:41:56.862Z,21.72
2022-08-30T08:45:03.627Z,21.82
2022-08-30T08:47:44.239Z,22.06
2022-08-30T08:50:18.684Z,22.12
2022-08-30T08:53:45.215Z,22.13
2022-08-30T08:56:16.909Z,22.47
2022-08-30T08:58:55.087Z,22.40
2022-08-30T09:01:28.184Z,22.31
2022-08-30T09:03:58.628Z,22.27
2022-08-30T09:06:50.757Z,22.71
2022-08-30T09:09:25.704Z,22.87
2022-08-30T09:11:53.520Z,22.91
2022-08-30T09:14:30.228Z,22.92
2022-08-30T09:17:12.134Z,22.99
2022-08-30T09:19:57.627Z,23.11
2022-08-30T09:22:40.376Z,23.13
2022-08-30T09:25:19.047Z,23.33
2022-08-30T09:27:49.700Z,23.28
2022-08-30T09:30:28.032Z,23.45
2022-08-30T09:33:05.410Z,23.65
2022-08-30T09:35:49.969Z,23.91
2022-08-30T09:38:22.204Z,24.01
2022-08-30T09:40:56.926Z,23.97
2022-08-30T09:43:32.739Z,24.14
2022-08-30T09:46:00.460Z,24.33
2022-08-30T09:48:44.989Z,24.42
2022-08-30T09:51:15.544Z,24.43
2022-08-30T09:54:25.501Z,24.49
2022-08-30T09:58:02.015Z,24.23
2022-08-30T10:00:36.318Z,24.37
2022-08-30T10:03:43.258Z,24.47
2022-08-30T10:06:33.812Z,24.63
2022-08-30T10:09:36.140Z,24.52
2022-08-30T10:12:16.978Z,24.58
2022-08-30T10:15:00.593Z,24.59
2022-08-30T10:17:57.067Z,24.79
2022-08-30T10:20:34.810Z,24.82
2022-08-30T10:23:29.643Z,24.93
2022-08-30T10:26:30.061Z,25.00
2022-08-30T10:29:08.979Z,24.82
2022-08-30T10:31:46.289Z,24.56
2022-08-30T10:34:55.072Z,24.78
2022-08-30T10:37:37.539Z,24.93
2022-08-30T10:40:48.524Z,24.88
2022-08-30T10:43:31.918Z,25.17
2022-08-30T10:46:09.932Z,25.37
2022-08-30T10:48:47.561Z,25.37
2022-08-30T10:51:25.811Z,25.19
2022-08-30T10:54:10.346Z,25.30
2022-08-30T10:56:43.477Z,25.36
2022-08-30T10:59:12.137Z,25.51
2022-08-30T11:02:05.768Z,25.61
2022-08-30T11:05:25.996Z,25.62
2022-08-30T11:08:28.668Z,25.82
2022-08-30T11:11:12.927Z,25.68
2022-08-30T11:13:42.448Z,25.95
2022-08-30T11:16:15.841Z,25.86
2022-08-30T11:18:52.348Z,26.14
2022-08-30T11:21:25.347Z,26.17
2022-08-30T11:24:14.047Z,26.20
2022-08-30T11:26:50.648Z,26.19
2022-08-30T11:29:27.568Z,26.37
2022-08-30T11:32:02.515Z,26.31
2022-08-30T11:34:56.759Z,26.58
2022-08-30T11:37:31.298Z,26.78
2022-08-30T11:40:03.794Z,26.95
2022-08-30T11:42:48.208Z,26.96
2022-08-30T11:45:25.130Z,26.60
2022-08-30T11:48:00.016Z,26.82
2022-08-30T11:50:37.525Z,26.78
2022-08-30T11:53:27.352Z,26.84
2022-08-30T11:56:44.156Z,27.15
2022-08-30T11:59:38.341Z,26.98
2022-08-30T12:02:08.024Z,26.91
2022-08-30T12:04:56.225Z,26.82
2022-08-30T12:07:59.945Z,26.88
2022-08-30T12:10:52.903Z,26.60
2022-08-30T12:13:39.080Z,27.05
2022-08-30T12:16:14.880Z,26.97
2022-08-30T12:19:10.648Z,26.46
2022-08-30T12:21:43.728Z,26.50
2022-08-30T12:24:30.022Z,26.23
2022-08-30T12:26:59.033Z,26.18
2022-08-30T12:29:30.583Z,25.92
2022-08-30T12:32:23.538Z,25.99
2022-08-30T12:34:59.207Z,26.26
2022-08-30T12:37:34.057Z,26.44
2022-08-30T12:40:34.655Z,26.52
2022-08-30T12:43:40.503Z,26.55
2022-08-30T12:46:11.866Z,26.77
2022-08-30T12:48:41.457Z,26.66
2022-08-30T12:51:40.998Z,26.41
2022-08-30T12:54:22.489Z,26.60
2022-08-30T12:57:19.200Z,26.64
2022-08-30T12:59:59.516Z,26.97
2022-08-30T13:02:52.221Z,27.15
2022-08-30T13:05:40.510Z,26.99
2022-08-30T13:08:21.400Z,26.95
2022-08-30T13:10:56.026Z,26.87
2022-08-30T13:13:58.293Z,26.35
2022-08-30T13:16:36.491Z,26.25
2022-08-30T13:19:38.074Z,26.26
2022-08-30T13:22:07.345Z,26.10
2022-08-30T13:24:35.335Z,25.94
2022-08-30T13:27:11.302Z,26.15
2022-08-30T13:29:40.467Z,26.18
2022-08-30T13:32:10.329Z,26.58
2022-08-30T13:34:38.895Z,26.67
2022-08-30T13:37:44.249Z,26.41
2022-08-30T13:39:55.626Z,26.26
2022-08-30T13:42:38.546Z,26.32
2022-08-30T13:45:40.841Z,26.35
2022-08-30T13:47:55.369Z,26.19
2022-08-30T13:50:23.174Z,26.45
2022-08-30T13:52:51.114Z,26.54
2022-08-30T13:55:18.725Z,26.51
2022-08-30T13:57:56.141Z,26.59
2022-08-30T14:00:25.582Z,26.52
2022-08-30T14:02:59.871Z,26.56
2022-08-30T14:05:50.521Z,26.44
2022-08-30T14:08:46.191Z,26.49
2022-08-30T14:11:22.478Z,26.68
2022-08-30T14:16:44.783Z,26.64
2022-08-30T14:19:15.572Z,26.67
2022-08-30T14:21:49.011Z,26.53
2022-08-30T14:24:20.298Z,26.65
2022-08-30T14:26:51.631Z,26.31
2022-08-30T14:29:26.068Z,26.15
2022-08-30T14:31:54.100Z,26.29
2022-08-30T14:34:23.055Z,26.43
2022-08-30T14:36:50.862Z,26.50
2022-08-30T14:39:21.043Z,26.68
2022-08-30T14:41:53.837Z,26.68
2022-08-30T14:44:26.462Z,26.65
2022-08-30T14:46:55.442Z,26.69
2022-08-30T14:49:24.954Z,26.66
2022-08-30T14:51:54.486Z,26.77
2022-08-30T14:54:27.520Z,27.09
2022-08-30T14:56:56.112Z,26.95
2022-08-30T14:59:25.440Z,26.91
2022-08-30T15:01:53.391Z,26.66
2022-08-30T15:04:21.495Z,26.18
2022-08-30T15:06:50.517Z,26.08
2022-08-30T15:09:23.857Z,26.16
2022-08-30T15:11:59.574Z,26.22
2022-08-30T15:14:31.157Z,26.04
2022-08-30T15:17:02.689Z,25.96
2022-08-30T15:19:31.721Z,26.12
2022-08-30T15:22:05.409Z,26.26
2022-08-30T15:24:33.725Z,26.48
2022-08-30T15:27:02.160Z,26.45
2022-08-30T15:29:31.848Z,26.32
2022-08-30T15:32:02.104Z,26.48
2022-08-30T15:34:31.430Z,26.51
2022-08-30T15:36:59.113Z,26.55
2022-08-30T15:39:26.896Z,26.36
2022-08-30T15:42:00.599Z,26.33
2022-08-30T15:44:38.436Z,26.36
2022-08-30T15:47:06.404Z,26.45
2022-08-30T15:49:34.141Z,26.34
2022-08-30T15:52:05.010Z,26.37
2022-08-30T15:54:38.295Z,26.37
2022-08-30T15:57:06.057Z,26.20
2022-08-30T15:59:33.722Z,26.16
2022-08-30T16:02:02.457Z,26.04
2022-08-30T16:04:33.160Z,25.85
2022-08-30T16:07:00.962Z,25.78
2022-08-30T16:09:30.130Z,25.78
2022-08-30T16:12:04.843Z,25.63
2022-08-30T16:14:33.038Z,25.48
2022-08-30T16:17:01.978Z,25.49
2022-08-30T16:19:29.961Z,25.55
2022-08-30T16:21:57.954Z,25.66
2022-08-30T16:24:26.110Z,25.65
2022-08-30T16:26:54.502Z,25.80
2022-08-30T16:29:22.790Z,25.84
2022-08-30T16:31:50.542Z,25.82
2022-08-30T16:34:20.796Z,25.76
2022-08-30T16:36:48.805Z,25.81
2022-08-30T16:39:17.492Z,25.69
2022-08-30T16:41:48.239Z,25.73
2022-08-30T16:44:17.825Z,25.80
2022-08-30T16:46:53.254Z,25.89
2022-08-30T16:49:24.873Z,26.04
2022-08-30T16:51:53.914Z,25.97
2022-08-30T16:54:22.734Z,26.05
2022-08-30T16:56:50.896Z,25.78
2022-08-30T16:59:18.910Z,25.68
2022-08-30T17:01:48.248Z,25.40
2022-08-30T17:04:18.384Z,25.45
2022-08-30T17:06:50.143Z,25.26
2022-08-30T17:09:19.677Z,25.24
2022-08-30T17:11:48.836Z,25.24
2022-08-30T17:14:22.910Z,25.17
2022-08-30T17:16:58.387Z,25.10
2022-08-30T17:19:31.399Z,24.92
2022-08-30T17:21:59.438Z,24.98
2022-08-30T17:24:27.901Z,24.82
2022-08-30T17:26:56.043Z,24.74
2022-08-30T17:29:26.122Z,24.89
2022-08-30T17:31:54.561Z,24.74
2022-08-30T17:34:23.064Z,24.75
2022-08-30T17:36:54.998Z,24.61
2022-08-30T17:39:25.236Z,24.64
2022-08-30T17:41:53.338Z,24.36
2022-08-30T17:44:25.594Z,24.36
2022-08-30T17:46:55.104Z,24.34
2022-08-30T17:49:24.926Z,24.01
2022-08-30T17:51:56.600Z,23.97
2022-08-30T17:54:27.370Z,24.11
2022-08-30T17:56:56.382Z,24.03
2022-08-30T17:59:27.065Z,23.92
2022-08-30T18:02:02.365Z,23.87
2022-08-30T18:04:31.360Z,23.74
2022-08-30T18:06:59.211Z,23.74
2022-08-30T18:09:30.567Z,23.58
2022-08-30T18:12:01.061Z,23.59
2022-08-30T18:14:29.275Z,23.71
2022-08-30T18:16:56.944Z,23.60
2022-08-30T18:19:27.855Z,23.52
2022-08-30T18:21:56.621Z,23.44
2022-08-30T18:24:24.760Z,23.46
2022-08-30T18:26:54.851Z,23.48
2022-08-30T18:30:34.682Z,23.49
2022-08-30T18:37:42.419Z,22.59
2022-08-30T18:40:17.103Z,23.11
2022-08-30T18:42:46.734Z,23.05
2022-08-30T18:45:15.380Z,22.62
2022-08-30T18:47:43.682Z,22.85
2022-08-30T18:50:12.535Z,22.88
2022-08-30T18:52:40.297Z,22.77
2022-08-30T18:55:08.662Z,22.88
2022-08-30T18:57:36.685Z,22.95
2022-08-30T19:00:06.519Z,22.81
2022-08-30T19:02:34.371Z,22.82
2022-08-30T19:05:08.830Z,22.89
2022-08-30T19:07:37.689Z,22.84
2022-08-30T19:10:08.622Z,22.75
2022-08-30T19:12:41.262Z,22.74
2022-08-30T19:15:11.606Z,22.39
2022-08-30T19:17:43.688Z,22.55
2022-08-30T19:20:16.074Z,22.57
2022-08-30T19:23:08.926Z,22.52
2022-08-30T19:25:32.327Z,22.58
2022-08-30T19:28:00.018Z,22.36
2022-08-30T19:30:29.882Z,22.41
2022-08-30T19:32:57.940Z,22.38
2022-08-30T19:35:26.930Z,22.24
2022-08-30T19:37:58.661Z,22.50
2022-08-30T19:40:26.478Z,22.44
2022-08-30T19:42:54.256Z,22.28
2022-08-30T19:45:23.114Z,22.32
2022-08-30T19:47:53.148Z,22.14
2022-08-30T19:50:22.606Z,21.87
2022-08-30T19:52:54.842Z,22.16
2022-08-30T19:58:13.999Z,21.94
2022-08-30T20:00:54.558Z,21.83
2022-08-30T20:03:28.424Z,21.77
2022-08-30T20:05:57.337Z,21.92
2022-08-30T20:08:25.556Z,21.95
2022-08-30T20:10:53.301Z,22.03
2022-08-30T20:13:23.538Z,21.86
2022-08-30T20:15:55.942Z,21.68
2022-08-30T20:18:29.022Z,21.86
2022-08-30T20:20:57.075Z,21.74
2022-08-30T20:23:25.694Z,21.82
2022-08-30T20:25:55.561Z,21.87
2022-08-30T20:28:25.369Z,21.89
2022-08-30T20:30:54.512Z,21.93
2022-08-30T20:33:24.427Z,21.68
2022-08-30T20:35:52.544Z,21.72
2022-08-30T20:38:21.689Z,21.50
2022-08-30T20:40:54.169Z,21.71
2022-08-30T20:43:26.327Z,21.80
2022-08-30T20:45:55.409Z,21.75
2022-08-30T20:48:26.091Z,21.69
2022-08-30T20:50:53.708Z,21.70
2022-08-30T20:53:21.567Z,21.69
2022-08-30T20:55:49.296Z,21.67
2022-08-30T20:58:17.326Z,21.65
2022-08-30T21:00:51.368Z,21.62
2022-08-30T21:03:26.288Z,21.68
2022-08-30T21:05:56.178Z,21.69
2022-08-30T21:08:24.049Z,21.69
2022-08-30T21:10:52.777Z,21.66
2022-08-30T21:13:20.917Z,21.58
2022-08-30T21:15:58.314Z,21.49
2022-08-30T21:18:33.045Z,21.44
2022-08-30T21:21:13.312Z,21.53
2022-08-30T21:23:41.999Z,21.47
2022-08-30T21:26:11.381Z,21.43
2022-08-30T21:28:40.300Z,21.40
2022-08-30T21:31:12.813Z,21.35
2022-08-30T21:33:41.901Z,21.39
2022-08-30T21:36:29.429Z,21.34
2022-08-30T21:39:00.683Z,21.38
2022-08-30T21:41:31.562Z,21.30
2022-08-30T21:44:03.410Z,21.12
2022-08-30T21:46:33.052Z,21.14
2022-08-30T21:49:04.714Z,20.98
2022-08-30T21:51:37.018Z,20.99
2022-08-30T21:54:08.585Z,21.17
2022-08-30T21:56:38.825Z,21.20
2022-08-30T21:59:08.491Z,20.95
2022-08-30T22:01:37.747Z,21.00
2022-08-30T22:04:08.621Z,20.98
2022-08-30T22:06:38.625Z,20.86
2022-08-30T22:09:10.507Z,20.85
2022-08-30T22:11:38.506Z,20.84
2022-08-30T22:14:08.251Z,20.83
2022-08-30T22:16:36.940Z,20.80
2022-08-30T22:19:04.804Z,20.70
2022-08-30T22:21:36.384Z,20.68
2022-08-30T22:24:05.021Z,20.60
2022-08-30T22:26:34.752Z,20.60
2022-08-30T22:29:04.658Z,20.40
2022-08-30T22:31:32.518Z,20.54
2022-08-30T22:34:00.399Z,20.53
2022-08-30T22:36:33.007Z,20.56
2022-08-30T22:39:03.151Z,20.53
2022-08-30T22:41:34.385Z,20.53
2022-08-30T22:44:06.443Z,20.50
2022-08-30T22:46:35.954Z,20.44
2022-08-30T22:49:09.504Z,20.31
2022-08-30T22:51:38.382Z,20.17
2022-08-30T22:54:08.754Z,20.40
2022-08-30T22:56:38.532Z,20.38
2022-08-30T22:59:06.560Z,20.30
2022-08-30T23:01:38.679Z,20.15
2022-08-30T23:04:09.042Z,20.28
2022-08-30T23:06:36.838Z,20.09
2022-08-30T23:09:06.447Z,20.17
2022-08-30T23:11:37.621Z,20.11
2022-08-30T23:14:06.991Z,19.97
2022-08-30T23:16:35.263Z,19.97
2022-08-30T23:19:05.793Z,20.05
2022-08-30T23:21:33.449Z,19.94
2022-08-30T23:24:19.554Z,20.00
2022-08-30T23:27:06.413Z,19.93
2022-08-30T23:29:53.938Z,19.80
2022-08-30T23:32:41.028Z,19.74
2022-08-30T23:35:31.049Z,19.76
2022-08-30T23:38:20.680Z,19.77
2022-08-30T23:41:07.010Z,19.46
2022-08-30T23:43:54.113Z,19.72
2022-08-30T23:46:41.377Z,19.60
2022-08-30T23:49:27.977Z,19.71
2022-08-30T23:52:13.999Z,19.66
2022-08-30T23:54:59.943Z,19.53
2022-08-30T23:57:46.389Z,19.62
